AirNav   Everest Fuels
 
 327 users online  

43L Van Nuys County Court Heliport
Los Angeles, California, USA

GOING TO LOS ANGELES?


FAA INFORMATION EFFECTIVE 18 JUNE 2020

Location

FAA Identifier: 43L
Lat/Long: 34-11-00.0000N 118-26-48.0000W
34-11.000000N 118-26.800000W
34.1833333,-118.4466667
(estimated)
Elevation: 850 ft. / 259 m (estimated)
Variation: 14E (1985)
Time zone: UTC -7 (UTC -8 during Standard Time)
Zip code: 91401

Heliport Operations

Heliport use: Private use. Permission required prior to landing
Activation date: 09/1972
Control tower: no
ARTCC: LOS ANGELES CENTER
FSS: HAWTHORNE FLIGHT SERVICE STATION
Attendance: UNATNDD
Wind indicator: yes
Segmented circle: no

Heliport Communications

WX ASOS at VNY (2.7 nm NW): PHONE 818-904-9213
WX ASOS at BUR (4 nm E): PHONE 818-841-1384
WX AWOS-3PT at WHP (5 nm N): 132.1 (818-899-9820)
WX ASOS at SMO (10 nm S): PHONE 310-392-6453
WX ASOS at LAX (15 nm S): PHONE 310-568-1486
WX ASOS at HHR (17 nm S): PHONE 310-973-8930

Nearby radio navigation aids

VOR radial/distance  VOR name  Freq  Var
VNYr122/3.3VAN NUYS VOR/DME113.1015E
SMOr348/10.4SANTA MONICA VOR/DME110.8015E
LAXr342/15.0LOS ANGELES VORTAC113.6015E
FIMr101/23.9FILLMORE VORTAC112.5015E
VTUr067/30.2VENTURA VOR/DME108.2015E
LHSr153/30.7LAKE HUGHES VORTAC114.3515E
SLIr306/30.9SEAL BEACH VORTAC115.7015E
CMAr078/32.2CAMARILLO VOR/DME115.8015E
PMDr200/32.9PALMDALE VORTAC114.5015E
POMr266/33.4POMONA VORTAC110.4015E

Heliport Services

Airframe service: NONE
Powerplant service: NONE

Runway Information

Helipad H1

Dimensions: 50 x 50 ft. / 15 x 15 m
Surface: concrete
ROOFTOP HELIPAD.
Latitude: 34-11.000000N
Longitude: 118-26.800000W
Elevation: 850.0 ft.
Traffic pattern: leftleft

Heliport Ownership and Management from official FAA records

Ownership: Publicly-owned
Owner: COUNTY OF LOS ANGELES
4700 RAMONA BLVD
MONTEREY PARK, CA 91754-2169
Manager: ROBERT RENTERIA
LA COUNTY SHERIFF AERO BUREAU, 3235 LAKEWOOD BLVD
LONG BEACH, CA 90808
Phone 562-421-2701

Additional Remarks

A52-H1 60' ANTENNA ON BUILDING.
FOR CD CTC LOS ANGELES ARTCC AT 661-575-2079.

Instrument Procedures

There are no published instrument procedures at 43L.

Some nearby airports with instrument procedures:

KVNY - Van Nuys Airport (3 nm NW)
KBUR - Bob Hope Airport (4 nm E)
KWHP - Whiteman Airport (5 nm N)
KSMO - Santa Monica Municipal Airport (10 nm S)
KLAX - Los Angeles International Airport (15 nm S)
KHHR - Jack Northrop Field/Hawthorne Municipal Airport (17 nm S)
 
Loc | Ops | Rwys | IFR | FBO | Links
Com | Nav | Svcs | Stats | Notes
Area around 43L (Van Nuys County Court Heliport)
 
Road maps at: MapQuest Bing Google
 
Aerial photo
No photo
 
Sectional chart

 
Airport distance calculator
Flying to Van Nuys County Court Heliport? Find the distance to fly.

From to 43L

Sunrise and sunset
Times for 11-Jul-2020
 Local
(UTC-7)
 Zulu
(UTC)
Morning civil twilight05:2412:24
Sunrise05:5212:52
Sunset20:0603:06
Evening civil twilight20:3503:35

Current date and time
Zulu (UTC)  11-Jul-2020 10:07:49
Local (UTC-7)  11-Jul-2020 03:07:49
 
METAR
KVNY 
3nm NW 
110951Z AUTO 13003KT 10SM CLR 23/15 A2997 RMK AO2 SLP137 T02330150
KBUR 
4nm E 
110953Z 12003KT 10SM CLR 22/15 A2997 RMK AO2 SLP134 T02170150
KWHP 
4nm N 
110250Z 13003KT 10SM SKC 29/09 A2998
KSMO 
10nm S 
110951Z AUTO VRB03KT 5SM BR OVC002 18/17 A2997 RMK AO2 SLP148 T01780167
KCQT 
13nm SE 
110952Z AUTO 00000KT 7SM CLR 18/16 A2996 RMK AO2 SLP144 T01830161
KLAX 
15nm S 
110953Z 26003KT 6SM BR BKN007 18/16 A2997 RMK AO2 SLP146 T01780161 $
KHHR 
17nm S 
110953Z AUTO 00000KT 9SM BKN006 18/16 A2997 RMK AO2 SLP148 T01830161
TAF
KVNY 
3nm NW 
110539Z 1106/1206 VRB03KT P6SM SKC FM112000 15008KT P6SM SKC FM120300 12006KT P6SM SKC FM120500 VRB03KT P6SM SKC
KBUR 
4nm E 
110539Z 1106/1206 13006KT P6SM SKC FM110900 VRB03KT P6SM SKC FM111900 17008KT P6SM SKC FM120400 13006KT P6SM SKC
KSMO 
10nm S 
110810Z 1108/1206 VRB03KT P6SM OVC004 FM111000 VRB03KT 2SM BR OVC003 FM111600 VRB03KT P6SM SKC FM111700 23006KT P6SM SKC FM120400 VRB03KT P6SM OVC006
KLAX 
15nm S 
110539Z 1106/1212 26006KT 2SM BR OVC003 FM110900 VRB03KT 2SM BR OVC003 FM111500 VRB03KT 4SM BR BKN008 FM111600 VRB03KT P6SM SCT010 FM111800 25006KT P6SM FEW015 FM112000 27012KT P6SM SKC FM120500 27006KT P6SM OVC006 FM120900 VRB03KT 4SM BR OVC005
NOTAMs
Click for the latest NOTAMs
NOTAMs are issued by the DoD/FAA and will open in a separate window not controlled by AirNav.

 

 
 

Would you like to see your business listed on this page?

 If your business provides an interesting product or service to pilots, flight crews, aircraft, or users of the Van Nuys County Court Heliport, you should consider listing it here.  To start the listing process, click on the button below
 
Add a business
 

Other Pages about Van Nuys County Court Heliport

Update a link
 
Copyright © AirNav, LLC. All rights reserved. Privacy Policy  Contact